Flight Track Log - Related Links

Times and Time Zones

All times are in EDT time to prevent confusion due to time zone crossing. See the UAL4476 flight status page for this flight to view local times or setup timezone preferences in your user account.

Time Position Orientation Groundspeed Altitude Reporting Facility
EDT Latitude Longitude Course Direction KTS MPH feet Rate Location/Type
Mon 14:27:06 41.3939 -81.8814 257° West 161 185 1,800  Level Cleveland Center
Mon 14:28:19 41.3783 -81.9722 257° West 235 270 4,000 2,073 Climbing Cleveland Center
Mon 14:28:56 41.3672 -82.0272 255° West 237 273 5,600 2,852 Climbing Cleveland Center
Mon 14:29:20 41.3583 -82.0547 247° West 232 267 6,900 2,900 Climbing Cleveland Center
Mon 14:29:56 41.3433 -82.0989 246° West 228 262 8,500 2,063 Climbing Cleveland Center
Mon 14:30:56 41.3131 -82.1811 244° Southwest 228 262 10,200 1,500 Climbing Cleveland Center
Mon 14:31:56 41.2783 -82.2714 243° Southwest 259 298 11,500 1,350 Climbing Cleveland Center
Mon 14:32:56 41.2353 -82.3614 238° Southwest 278 320 12,900 1,250 Climbing Cleveland Center
Mon 14:33:56 41.1858 -82.4511 234° Southwest 299 344 14,000 550 Climbing Cleveland Center
Mon 14:34:56 41.1322 -82.5514 235° Southwest 322 371 14,000  Level Cleveland Center
Mon 14:35:56 41.0761 -82.6517 233° Southwest 343 395 14,000  Level Cleveland Center
Mon 14:36:56 41.0200 -82.7517 233° Southwest 343 395 14,000 -50 Level Cleveland Center
Mon 14:37:56 40.9639 -82.8517 233° Southwest 343 395 13,900 -50 Descending Cleveland Center
Mon 14:38:56 40.9078 -82.9514 233° Southwest 343 395 13,900  Level Cleveland Center
Mon 14:39:56 40.8578 -83.0375 233° Southwest 343 395 13,900  Level Cleveland Center
Mon 14:42:00 40.7275 -83.2244 227° Southwest 348 400 13,900  Level Indianapolis Center
Mon 14:43:02 40.6622 -83.3144 226° Southwest 339 390 13,900  Level Indianapolis Center
Mon 14:44:04 40.6086 -83.4194 236° Southwest 340 391 13,900  Level Indianapolis Center
Mon 14:45:06 40.5558 -83.5239 236° Southwest 342 394 13,900 49 Level Indianapolis Center
Mon 14:46:07 40.4931 -83.6450 236° Southwest 342 394 14,000 -55 Climbing Indianapolis Center
Mon 14:46:56 40.4492 -83.7289 236° Southwest 341 392 13,800 -764 Descending Indianapolis Center
Mon 14:47:57 40.3978 -83.8292 236° Southwest 336 387 12,600 -1,240 Descending Indianapolis Center
Mon 14:48:57 40.3508 -83.9217 236° Southwest 295 339 11,300 -1,263 Descending Indianapolis Center
Mon 14:49:13 40.3422 -83.9381 235° Southwest 299 344 11,000 -1,377 Descending Indianapolis Center
Mon 14:49:58 40.3075 -83.9953 232° Southwest 246 283 9,900 -1,355 Descending Indianapolis Center
Mon 14:50:15 40.2986 -84.0106 233° Southwest 260 299 9,600 -1,475 Descending Indianapolis Center
Mon 14:50:59 40.2642 -84.0692 232° Southwest 231 266 8,400 -1,452 Descending Indianapolis Center
Mon 14:51:17 40.2586 -84.0769 227° Southwest 240 276 8,100 -1,881 Descending Indianapolis Center
Mon 14:52:06 40.2200 -84.1261 224° Southwest 211 243 6,300 -2,092 Descending Indianapolis Center
Mon 14:53:06 40.1639 -84.1486 197° South 211 243 4,300 -1,974 Descending Indianapolis Center
Mon 14:53:22 40.1542 -84.1594 220° Southwest 214 246 3,800 -1,309 Descending Indianapolis Center
Mon 14:54:01 40.1286 -84.1958 227° Southwest 177 204 3,100 -774 Descending Indianapolis Center
Mon 14:54:24 40.1186 -84.2108 229° Southwest 199 229 3,000  Descending Indianapolis Center
Mon 14:55:02 40.0850 -84.2175 189° South 176 203 3,100  Climbing Indianapolis Center
Mon 14:55:26 40.0683 -84.2175 180° South 191 220 3,000 -111 Descending Indianapolis Center
Mon 14:55:56 40.0350 -84.2161 178° South 194 223 3,000 -97 Level Indianapolis Center
Mon 14:56:28 40.0150 -84.2147 177° South 190 219 2,900 -492 Descending Indianapolis Center
Mon 14:56:57 39.9908 -84.2158 182° South 147 169 2,500 -677 Descending Indianapolis Center
Mon 14:57:30 39.9783 -84.2142 174° South 158 182 2,200 -590 Descending Indianapolis Center
Mon 14:57:58 39.9575 -84.2142 180° South 104 120 1,900 -290 Descending Indianapolis Center
Mon 14:58:32 39.9444 -84.2128 175° South 137 158 1,900 -590 Level Indianapolis Center
Mon 14:58:59 39.9261 -84.2125 179° South 114 131 1,300 -1,333 Descending Indianapolis Center
Mon 15:00:00 39.9000 -84.2167 123° Southeast  Level FlightAware Approximate

Login

Don't have an account? Register now (free) for customized features, flight alerts, and more!